createdAt,value
2023-01-21T00:01:49.732Z,40.93
2023-01-21T00:06:52.149Z,35.20
2023-01-21T00:11:54.562Z,41.50
2023-01-21T00:16:58.459Z,39.87
2023-01-21T00:22:00.939Z,39.53
2023-01-21T00:27:03.213Z,32.97
2023-01-21T00:32:06.735Z,35.83
2023-01-21T00:37:09.117Z,38.87
2023-01-21T00:42:11.354Z,37.03
2023-01-21T00:47:15.356Z,38.97
2023-01-21T00:52:17.594Z,37.63
2023-01-21T00:57:19.801Z,33.70
2023-01-21T01:02:23.702Z,33.97
2023-01-21T01:07:25.807Z,37.43
2023-01-21T01:12:30.102Z,34.10
2023-01-21T01:17:33.909Z,35.40
2023-01-21T01:22:35.891Z,32.90
2023-01-21T01:27:38.435Z,35.07
2023-01-21T01:32:42.032Z,36.23
2023-01-21T01:37:44.284Z,35.23
2023-01-21T01:42:46.255Z,33.07
2023-01-21T01:47:58.382Z,34.47
2023-01-21T01:53:02.295Z,39.20
2023-01-21T01:58:08.051Z,39.50
2023-01-21T02:03:29.679Z,43.60
2023-01-21T02:08:34.653Z,38.67
2023-01-21T02:13:36.603Z,36.30
2023-01-21T02:18:47.077Z,36.73
2023-01-21T02:24:22.761Z,35.33
2023-01-21T02:29:47.886Z,35.67
2023-01-21T02:34:55.660Z,34.43
2023-01-21T02:40:10.952Z,34.37
2023-01-21T02:45:21.698Z,36.33
2023-01-21T02:50:28.943Z,41.73
2023-01-21T02:55:32.811Z,35.13
2023-01-21T03:00:59.195Z,37.43
2023-01-21T03:06:30.431Z,35.90
2023-01-21T03:11:32.779Z,35.27
2023-01-21T03:17:00.775Z,33.10
2023-01-21T03:22:09.847Z,30.53
2023-01-21T03:27:15.198Z,34.17
2023-01-21T03:32:20.045Z,32.10
2023-01-21T03:37:29.257Z,37.50
2023-01-21T03:42:32.098Z,34.30
2023-01-21T03:47:36.763Z,32.30
2023-01-21T03:52:42.921Z,39.57
2023-01-21T03:57:44.926Z,36.93
2023-01-21T04:02:47.185Z,36.07
2023-01-21T04:07:50.458Z,36.43
2023-01-21T04:12:52.511Z,38.80
2023-01-21T04:17:54.488Z,37.10
2023-01-21T04:22:57.745Z,38.23
2023-01-21T04:27:59.736Z,38.43
2023-01-21T04:33:02.196Z,38.63
2023-01-21T04:38:06.205Z,39.33
2023-01-21T04:43:08.641Z,37.53
2023-01-21T04:48:10.861Z,31.90
2023-01-21T04:53:14.415Z,41.43
2023-01-21T04:58:16.363Z,37.13
2023-01-21T05:03:18.693Z,36.03
2023-01-21T05:08:22.120Z,36.47
2023-01-21T05:13:24.258Z,36.03
2023-01-21T05:18:26.616Z,37.57
2023-01-21T05:23:30.477Z,41.30
2023-01-21T05:28:32.721Z,39.73
2023-01-21T05:33:36.479Z,45.30
2023-01-21T05:38:40.569Z,38.40
2023-01-21T05:43:42.587Z,43.53
2023-01-21T05:48:44.817Z,43.83
2023-01-21T05:53:48.502Z,42.67
2023-01-21T05:58:50.564Z,40.33
2023-01-21T06:03:53.037Z,42.23
2023-01-21T06:08:56.564Z,42.40
2023-01-21T06:13:58.810Z,38.53
2023-01-21T06:19:00.836Z,41.20
2023-01-21T06:24:04.761Z,43.73
2023-01-21T06:29:06.907Z,51.97
2023-01-21T06:34:09.222Z,55.57
2023-01-21T06:39:13.153Z,51.33
2023-01-21T06:44:15.465Z,52.97
2023-01-21T06:49:17.810Z,52.17
2023-01-21T06:54:21.561Z,49.60
2023-01-21T06:59:23.735Z,47.40
2023-01-21T07:04:27.521Z,49.73
2023-01-21T07:09:31.293Z,46.20
2023-01-21T07:14:33.605Z,46.00
2023-01-21T07:19:35.508Z,43.93
2023-01-21T07:24:39.471Z,42.63
2023-01-21T07:29:41.602Z,45.40
2023-01-21T07:34:43.545Z,46.80
2023-01-21T07:39:47.341Z,48.97
2023-01-21T07:44:49.407Z,45.93
2023-01-21T07:49:53.093Z,41.43
2023-01-21T07:54:56.772Z,40.73
2023-01-21T07:59:58.946Z,42.33
2023-01-21T08:05:00.835Z,47.03
2023-01-21T08:10:05.066Z,40.47
2023-01-21T08:15:09.388Z,45.43
2023-01-21T08:20:13.236Z,42.30
2023-01-21T08:25:17.488Z,40.00
2023-01-21T08:30:19.794Z,38.77
2023-01-21T08:35:22.154Z,40.70
2023-01-21T08:40:27.633Z,39.30
2023-01-21T08:45:30.862Z,37.67
2023-01-21T08:50:33.107Z,40.27
2023-01-21T08:55:36.281Z,35.03
2023-01-21T09:00:38.571Z,36.50
2023-01-21T09:05:40.975Z,35.97
2023-01-21T09:11:03.338Z,37.50
2023-01-21T09:16:09.463Z,32.50
2023-01-21T09:21:12.756Z,33.53
2023-01-21T09:26:17.952Z,32.17
2023-01-21T09:31:21.931Z,36.73
2023-01-21T09:36:26.366Z,32.53
2023-01-21T09:41:36.634Z,35.63
2023-01-21T09:46:44.721Z,36.07
2023-01-21T09:51:53.778Z,35.90
2023-01-21T09:57:31.812Z,36.20
2023-01-21T10:02:49.473Z,36.03
2023-01-21T10:07:59.968Z,37.10
2023-01-21T10:13:15.700Z,37.03
2023-01-21T10:18:23.982Z,37.33
2023-01-21T10:23:30.243Z,45.03
2023-01-21T10:28:33.065Z,36.17
2023-01-21T10:33:36.589Z,37.80
2023-01-21T10:38:44.970Z,33.60
2023-01-21T10:43:52.401Z,37.10
2023-01-21T10:49:02.247Z,38.03
2023-01-21T10:54:13.915Z,36.37
2023-01-21T10:59:18.777Z,35.27
2023-01-21T11:04:24.113Z,40.57
2023-01-21T11:09:29.798Z,41.83
2023-01-21T11:14:32.066Z,40.77
2023-01-21T11:19:35.819Z,40.07
2023-01-21T11:24:45.741Z,37.37
2023-01-21T11:29:50.241Z,39.40
2023-01-21T11:35:00.747Z,38.77
2023-01-21T11:40:07.089Z,35.77
2023-01-21T11:45:29.199Z,41.03
2023-01-21T11:50:35.895Z,38.57
2023-01-21T11:55:41.700Z,41.63
2023-01-21T12:00:47.485Z,35.50
2023-01-21T12:05:53.729Z,37.70
2023-01-21T12:10:58.155Z,38.23
2023-01-21T12:16:29.685Z,39.13
2023-01-21T12:21:47.521Z,39.43
2023-01-21T12:26:54.080Z,36.10
2023-01-21T12:32:02.916Z,41.50
2023-01-21T12:37:12.112Z,29.33
2023-01-21T12:42:19.428Z,28.67
2023-01-21T12:47:29.596Z,30.60
2023-01-21T12:52:41.549Z,29.60
2023-01-21T12:57:49.691Z,27.00
2023-01-21T13:02:59.896Z,24.83
2023-01-21T13:08:18.694Z,27.33
2023-01-21T13:13:26.944Z,32.23
2023-01-21T13:18:35.865Z,28.20
2023-01-21T13:23:46.428Z,32.03
2023-01-21T13:28:55.865Z,21.47
2023-01-21T13:34:06.367Z,23.70
2023-01-21T13:39:20.604Z,22.97
2023-01-21T13:45:01.713Z,22.23
2023-01-21T13:50:18.071Z,23.70
2023-01-21T13:55:38.391Z,23.13
2023-01-21T14:00:45.213Z,25.57
2023-01-21T14:05:52.302Z,27.73
2023-01-21T14:11:00.647Z,25.57
2023-01-21T14:16:33.795Z,32.80
2023-01-21T14:22:01.291Z,24.83
2023-01-21T14:27:25.406Z,26.57
2023-01-21T14:32:32.998Z,26.47
2023-01-21T14:37:42.907Z,28.20
2023-01-21T14:42:50.262Z,26.67
2023-01-21T14:47:53.966Z,28.20
2023-01-21T14:52:56.604Z,30.33
2023-01-21T14:58:02.357Z,29.43
2023-01-21T15:03:17.368Z,25.83
2023-01-21T15:08:24.013Z,26.57
2023-01-21T15:13:36.883Z,31.50
2023-01-21T15:18:41.899Z,28.30
2023-01-21T15:23:44.075Z,26.43
2023-01-21T15:28:49.808Z,25.60
2023-01-21T15:33:57.719Z,26.03
2023-01-21T15:39:03.441Z,26.23
2023-01-21T15:44:36.030Z,28.50
2023-01-21T15:49:51.678Z,26.03
2023-01-21T15:55:02.037Z,28.07
2023-01-21T16:00:24.999Z,28.83
2023-01-21T16:05:35.564Z,27.27
2023-01-21T16:10:47.651Z,30.73
2023-01-21T16:16:05.089Z,29.93
2023-01-21T16:21:07.836Z,24.37
2023-01-21T16:26:10.164Z,26.13
2023-01-21T16:31:15.153Z,31.03
2023-01-21T16:36:18.579Z,26.57
2023-01-21T16:41:31.236Z,29.80
2023-01-21T16:46:38.490Z,32.53
2023-01-21T16:51:43.873Z,26.03
2023-01-21T16:56:49.814Z,25.70
2023-01-21T17:01:55.719Z,26.80
2023-01-21T17:06:59.242Z,29.80
2023-01-21T17:12:07.601Z,25.73
2023-01-21T17:17:13.354Z,23.17
2023-01-21T17:22:19.373Z,24.23
2023-01-21T17:27:23.615Z,22.80
2023-01-21T17:32:33.059Z,27.67
2023-01-21T17:37:47.183Z,28.03
2023-01-21T17:42:54.600Z,32.03
2023-01-21T17:48:10.226Z,28.90
2023-01-21T17:53:22.935Z,25.37
2023-01-21T17:58:52.435Z,25.70
2023-01-21T18:03:57.620Z,27.03
2023-01-21T18:09:00.187Z,23.43
2023-01-21T18:14:03.702Z,26.87
2023-01-21T18:19:07.791Z,22.43
2023-01-21T18:24:12.911Z,23.73
2023-01-21T18:29:17.416Z,27.93
2023-01-21T18:34:21.935Z,27.30
2023-01-21T18:39:25.184Z,26.83
2023-01-21T18:44:29.859Z,26.87
2023-01-21T18:49:34.238Z,25.83
2023-01-21T18:54:37.395Z,22.87
2023-01-21T18:59:40.943Z,22.20
2023-01-21T19:04:47.188Z,21.37
2023-01-21T19:09:51.657Z,20.77
2023-01-21T19:14:54.573Z,24.53
2023-01-21T19:20:00.222Z,19.67
2023-01-21T19:25:03.602Z,19.07
2023-01-21T19:30:21.468Z,18.30
2023-01-21T19:35:30.575Z,21.10
2023-01-21T19:40:34.388Z,18.60
2023-01-21T19:45:37.905Z,17.30
2023-01-21T19:50:46.818Z,21.13
2023-01-21T19:56:18.835Z,17.10
2023-01-21T20:01:25.538Z,19.93
2023-01-21T20:06:32.704Z,20.57
2023-01-21T20:11:35.940Z,18.07
2023-01-21T20:16:46.161Z,21.37
2023-01-21T20:22:01.708Z,22.10
2023-01-21T20:27:09.564Z,17.83
2023-01-21T20:32:17.568Z,19.77
2023-01-21T20:37:22.572Z,20.63
2023-01-21T20:42:27.267Z,21.17
2023-01-21T20:47:38.314Z,20.73
2023-01-21T20:52:47.604Z,19.97
2023-01-21T20:57:49.859Z,18.90
2023-01-21T21:02:56.904Z,18.27
2023-01-21T21:08:04.840Z,18.43
2023-01-21T21:13:07.717Z,20.77
2023-01-21T21:18:13.382Z,19.27
2023-01-21T21:23:17.433Z,19.53
2023-01-21T21:28:21.476Z,21.20
2023-01-21T21:33:25.854Z,19.73
2023-01-21T21:38:30.638Z,18.67
2023-01-21T21:43:40.161Z,16.10
2023-01-21T21:48:43.838Z,19.67
2023-01-21T21:53:48.605Z,18.57
2023-01-21T21:58:52.555Z,19.17
2023-01-21T22:03:55.908Z,19.90
2023-01-21T22:09:00.585Z,20.20
2023-01-21T22:14:04.710Z,17.23
2023-01-21T22:19:06.828Z,17.63
2023-01-21T22:24:11.896Z,17.27
2023-01-21T22:29:14.500Z,18.80
2023-01-21T22:34:17.049Z,18.23
2023-01-21T22:39:20.973Z,16.83
2023-01-21T22:44:23.287Z,18.93
2023-01-21T22:49:25.791Z,17.33
2023-01-21T22:54:29.667Z,22.67
2023-01-21T22:59:33.785Z,18.27
2023-01-21T23:04:36.092Z,20.23
2023-01-21T23:09:40.335Z,18.27
2023-01-21T23:14:42.619Z,19.43
2023-01-21T23:19:44.994Z,18.10
2023-01-21T23:24:48.478Z,17.20
2023-01-21T23:29:50.954Z,19.83
2023-01-21T23:34:56.498Z,21.27
2023-01-21T23:40:00.168Z,18.13
2023-01-21T23:45:02.545Z,18.67
2023-01-21T23:50:08.690Z,18.17
2023-01-21T23:55:14.834Z,18.60
